createdAt,value
2023-01-17T00:00:47.347Z,942.5
2023-01-17T00:02:31.065Z,937.4
2023-01-17T00:04:14.724Z,932
2023-01-17T00:05:58.442Z,928
2023-01-17T00:07:42.138Z,924.1
2023-01-17T00:09:25.882Z,919.5
2023-01-17T00:11:09.636Z,914.1
2023-01-17T00:12:53.244Z,908.7
2023-01-17T00:14:36.987Z,903.2
2023-01-17T00:16:20.612Z,897.4
2023-01-17T00:18:04.433Z,895.5
2023-01-17T00:19:47.966Z,890.8
2023-01-17T00:21:31.685Z,889.2
2023-01-17T00:23:15.404Z,884.3
2023-01-17T00:24:59.144Z,880.9
2023-01-17T00:26:42.784Z,879.3
2023-01-17T00:28:26.563Z,872
2023-01-17T00:30:10.194Z,863.7
2023-01-17T00:31:53.918Z,858.9
2023-01-17T00:33:37.621Z,856.6
2023-01-17T00:35:21.296Z,851
2023-01-17T00:37:04.994Z,848.5
2023-01-17T00:38:48.772Z,845.1
2023-01-17T00:40:32.393Z,842.3
2023-01-17T00:42:16.095Z,837.6
2023-01-17T00:43:59.807Z,831.8
2023-01-17T00:45:43.497Z,830.6
2023-01-17T00:47:27.202Z,826.4
2023-01-17T00:49:10.896Z,820.3
2023-01-17T00:50:54.653Z,816.8
2023-01-17T00:52:38.379Z,811.1
2023-01-17T00:54:22.010Z,807.2
2023-01-17T00:56:05.760Z,804.8
2023-01-17T00:57:49.442Z,803.5
2023-01-17T00:59:33.103Z,803.3
2023-01-17T01:01:16.800Z,802.8
2023-01-17T01:03:00.539Z,798.3
2023-01-17T01:04:44.275Z,795
2023-01-17T01:06:27.946Z,791
2023-01-17T01:08:11.624Z,783.3
2023-01-17T01:09:55.320Z,774
2023-01-17T01:11:39.049Z,771.5
2023-01-17T01:13:22.743Z,768.2
2023-01-17T01:15:06.429Z,767.3
2023-01-17T01:16:50.146Z,765.8
2023-01-17T01:18:33.841Z,765
2023-01-17T01:20:17.579Z,763
2023-01-17T01:22:01.247Z,759.5
2023-01-17T01:23:44.947Z,756.8
2023-01-17T01:25:28.692Z,755.1
2023-01-17T01:27:12.365Z,754.4
2023-01-17T01:28:56.062Z,751.1
2023-01-17T01:30:39.767Z,747.8
2023-01-17T01:32:23.457Z,743.9
2023-01-17T01:34:07.172Z,739.6
2023-01-17T01:35:50.892Z,733.2
2023-01-17T01:37:34.582Z,728.9
2023-01-17T01:39:18.268Z,725.6
2023-01-17T01:41:02.081Z,721
2023-01-17T01:42:45.674Z,718.3
2023-01-17T01:44:29.389Z,719.4
2023-01-17T01:46:13.072Z,716.3
2023-01-17T01:47:56.788Z,714.4
2023-01-17T01:49:40.480Z,713.6
2023-01-17T01:51:24.190Z,711.1
2023-01-17T01:53:07.883Z,709
2023-01-17T01:54:51.623Z,710.2
2023-01-17T01:56:35.282Z,706.6
2023-01-17T01:58:18.988Z,704.5
2023-01-17T02:00:02.681Z,699
2023-01-17T02:01:46.393Z,693.3
2023-01-17T02:03:30.095Z,691.3
2023-01-17T02:05:13.794Z,687.8
2023-01-17T02:06:57.494Z,683.3
2023-01-17T02:08:41.221Z,681.6
2023-01-17T02:10:24.890Z,680.6
2023-01-17T02:12:08.596Z,679.9
2023-01-17T02:13:52.302Z,676.9
2023-01-17T02:15:36.009Z,674.7
2023-01-17T02:17:19.694Z,669.2
2023-01-17T02:19:03.399Z,663.4
2023-01-17T02:20:47.101Z,663.1
2023-01-17T02:22:30.813Z,660.2
2023-01-17T02:24:14.503Z,658.9
2023-01-17T02:25:58.197Z,658.8
2023-01-17T02:27:41.955Z,660.2
2023-01-17T02:29:25.606Z,660.8
2023-01-17T02:31:09.298Z,660
2023-01-17T02:32:53.018Z,655
2023-01-17T02:34:36.707Z,655.1
2023-01-17T02:36:20.414Z,653.6
2023-01-17T02:38:04.123Z,651.4
2023-01-17T02:39:47.810Z,647.9
2023-01-17T02:41:31.512Z,645.9
2023-01-17T02:43:15.211Z,645.6
2023-01-17T02:44:58.912Z,641.2
2023-01-17T02:46:42.621Z,642
2023-01-17T02:48:26.346Z,637.6
2023-01-17T02:50:10.030Z,637.1
2023-01-17T02:51:53.721Z,636.1
2023-01-17T02:53:37.443Z,634
2023-01-17T02:55:21.126Z,632.2
2023-01-17T02:57:04.839Z,631.1
2023-01-17T02:58:48.536Z,630.2
2023-01-17T03:00:32.242Z,628.3
2023-01-17T03:02:15.949Z,627
2023-01-17T03:03:59.636Z,623.7
2023-01-17T03:05:43.374Z,620.3
2023-01-17T03:07:27.078Z,619.2
2023-01-17T03:09:10.749Z,617.4
2023-01-17T03:10:54.468Z,615.1
2023-01-17T03:12:38.187Z,613.4
2023-01-17T03:14:21.878Z,614.6
2023-01-17T03:16:05.578Z,612.8
2023-01-17T03:17:49.273Z,609.7
2023-01-17T03:19:32.976Z,607.6
2023-01-17T03:21:16.688Z,606.8
2023-01-17T03:23:00.397Z,605.1
2023-01-17T03:24:44.062Z,603.3
2023-01-17T03:26:27.787Z,600.9
2023-01-17T03:28:11.472Z,598.6
2023-01-17T03:29:55.170Z,596.2
2023-01-17T03:31:38.864Z,595.4
2023-01-17T03:33:22.581Z,592.1
2023-01-17T03:35:06.293Z,590.2
2023-01-17T03:36:49.990Z,593.5
2023-01-17T03:38:33.679Z,593.5
2023-01-17T03:40:17.390Z,590.7
2023-01-17T03:42:01.079Z,589.5
2023-01-17T03:43:44.788Z,587.9
2023-01-17T03:45:28.479Z,587.5
2023-01-17T03:47:12.190Z,589.3
2023-01-17T03:48:55.889Z,589.4
2023-01-17T03:50:39.615Z,588.4
2023-01-17T03:52:23.414Z,588.2
2023-01-17T03:54:07.006Z,587.6
2023-01-17T03:55:50.717Z,586.1
2023-01-17T03:59:18.116Z,586.5
2023-01-17T04:01:01.833Z,584.6
2023-01-17T04:02:45.532Z,584.3
2023-01-17T04:04:29.338Z,584.8
2023-01-17T04:06:12.932Z,583.6
2023-01-17T04:07:56.631Z,580.6
2023-01-17T04:09:40.325Z,577.6
2023-01-17T04:11:24.037Z,573
2023-01-17T04:13:07.734Z,570.1
2023-01-17T04:14:51.438Z,569.5
2023-01-17T04:16:35.140Z,568.3
2023-01-17T04:18:18.854Z,565
2023-01-17T04:20:02.559Z,559.1
2023-01-17T04:21:46.240Z,560.3
2023-01-17T04:23:29.959Z,558.4
2023-01-17T04:25:13.659Z,560.9
2023-01-17T04:26:57.367Z,559.1
2023-01-17T04:28:41.061Z,556.2
2023-01-17T04:30:24.743Z,555.6
2023-01-17T04:32:08.471Z,552
2023-01-17T04:33:52.180Z,550.3
2023-01-17T04:35:35.867Z,549.9
2023-01-17T04:37:19.619Z,550.8
2023-01-17T04:39:03.300Z,549
2023-01-17T04:40:46.985Z,545.5
2023-01-17T04:42:30.676Z,546.8
2023-01-17T04:44:14.383Z,548
2023-01-17T04:45:58.120Z,547
2023-01-17T04:47:41.788Z,546.7
2023-01-17T04:49:25.486Z,546.3
2023-01-17T04:51:09.195Z,544.9
2023-01-17T04:52:52.874Z,546.2
2023-01-17T04:54:36.591Z,545.2
2023-01-17T04:56:20.304Z,541
2023-01-17T04:58:03.991Z,539.5
2023-01-17T04:59:47.690Z,540.8
2023-01-17T05:01:31.417Z,540.7
2023-01-17T05:03:15.111Z,535.7
2023-01-17T05:04:58.815Z,532.4
2023-01-17T05:06:42.500Z,531.1
2023-01-17T05:08:26.215Z,528.7
2023-01-17T05:10:09.902Z,528.7
2023-01-17T05:11:53.613Z,527.4
2023-01-17T05:13:37.309Z,529
2023-01-17T05:15:21.023Z,527
2023-01-17T05:17:04.707Z,525.9
2023-01-17T05:18:48.435Z,527.5
2023-01-17T05:20:32.137Z,526.9
2023-01-17T05:22:15.913Z,522.9
2023-01-17T05:23:59.522Z,518.1
2023-01-17T05:25:43.228Z,519.7
2023-01-17T05:27:26.992Z,518.8
2023-01-17T05:29:10.650Z,520
2023-01-17T05:30:54.336Z,521.4
2023-01-17T05:32:38.036Z,524.6
2023-01-17T05:34:21.752Z,526.9
2023-01-17T05:36:05.444Z,528.4
2023-01-17T05:37:49.136Z,530.2
2023-01-17T05:39:32.833Z,529
2023-01-17T05:41:16.540Z,526.5
2023-01-17T05:43:00.243Z,527.5
2023-01-17T05:44:43.940Z,525.1
2023-01-17T05:46:27.655Z,524.3
2023-01-17T05:48:11.375Z,522.3
2023-01-17T05:49:55.059Z,521.3
2023-01-17T05:51:38.749Z,520.2
2023-01-17T05:53:22.462Z,519.7
2023-01-17T05:55:06.159Z,520.6
2023-01-17T05:56:49.856Z,517.7
2023-01-17T05:58:33.557Z,517.7
2023-01-17T06:00:17.264Z,517.7
2023-01-17T06:02:00.991Z,516.8
2023-01-17T06:03:44.681Z,516.4
2023-01-17T06:05:28.372Z,515.2
2023-01-17T06:07:12.077Z,513.6
2023-01-17T06:08:55.771Z,512.1
2023-01-17T06:10:39.552Z,513.1
2023-01-17T06:12:23.188Z,514.7
2023-01-17T06:14:06.898Z,514.3
2023-01-17T06:15:50.599Z,514.9
2023-01-17T06:17:34.306Z,515.3
2023-01-17T06:19:17.997Z,514.7
2023-01-17T06:21:01.708Z,513.8
2023-01-17T06:22:45.422Z,514.1
2023-01-17T06:24:29.106Z,510.8
2023-01-17T06:26:12.813Z,508.2
2023-01-17T06:27:56.509Z,508.9
2023-01-17T06:29:40.217Z,509
2023-01-17T06:31:23.917Z,509.5
2023-01-17T06:33:07.684Z,504.3
2023-01-17T06:34:51.331Z,500.8
2023-01-17T06:36:35.021Z,501.2
2023-01-17T06:38:18.736Z,501.2
2023-01-17T06:40:02.491Z,501.3
2023-01-17T06:41:46.138Z,501.5
2023-01-17T06:43:29.854Z,499.6
2023-01-17T06:45:13.555Z,497.8
2023-01-17T06:46:57.248Z,495.8
2023-01-17T06:48:40.953Z,496.7
2023-01-17T06:50:24.659Z,495.2
2023-01-17T06:52:08.410Z,497.6
2023-01-17T06:53:52.053Z,497.5
2023-01-17T06:55:35.840Z,497.6
2023-01-17T06:57:19.475Z,496.4
2023-01-17T06:59:03.181Z,495.5
2023-01-17T07:00:46.980Z,494.7
2023-01-17T07:02:30.571Z,496.3
2023-01-17T07:04:14.324Z,499.6
2023-01-17T07:05:57.991Z,500.3
2023-01-17T07:07:41.686Z,502
2023-01-17T07:09:25.399Z,500.2
2023-01-17T07:11:09.137Z,503.2
2023-01-17T07:12:52.789Z,506.7
2023-01-17T07:14:36.532Z,508
2023-01-17T07:16:20.272Z,508.4
2023-01-17T07:18:03.965Z,508
2023-01-17T07:19:47.589Z,503.3
2023-01-17T07:21:31.338Z,500.1
2023-01-17T07:23:15.084Z,498.1
2023-01-17T07:24:58.720Z,502.1
2023-01-17T07:26:42.427Z,503.6
2023-01-17T07:28:26.135Z,501.3
2023-01-17T07:30:09.806Z,497.8
2023-01-17T07:31:53.514Z,495.3
2023-01-17T07:33:37.274Z,496.8
2023-01-17T07:35:20.926Z,497.1
2023-01-17T07:37:04.608Z,493.4
2023-01-17T07:38:48.418Z,491.2
2023-01-17T07:40:32.035Z,491.6
2023-01-17T07:42:15.714Z,490.7
2023-01-17T07:43:59.432Z,491.9
2023-01-17T07:45:43.182Z,490.5
2023-01-17T07:47:26.821Z,488.8
2023-01-17T07:49:10.681Z,487.8
2023-01-17T07:52:37.993Z,488.1
2023-01-17T07:54:21.679Z,489.4
2023-01-17T07:56:05.315Z,489.8
2023-01-17T07:57:49.030Z,491.2
2023-01-17T07:59:32.732Z,491
2023-01-17T08:01:16.413Z,491.8
2023-01-17T08:03:00.141Z,491.8
2023-01-17T08:04:43.920Z,490
2023-01-17T08:06:27.583Z,487.8
2023-01-17T08:08:11.231Z,487.7
2023-01-17T08:09:54.983Z,490.1
2023-01-17T08:11:38.729Z,493
2023-01-17T08:13:22.337Z,496
2023-01-17T08:15:06.066Z,497.4
2023-01-17T08:16:49.820Z,500.5
2023-01-17T08:18:33.468Z,504
2023-01-17T08:20:17.151Z,503.4
2023-01-17T08:22:00.877Z,502.8
2023-01-17T08:23:44.598Z,507.5
2023-01-17T08:25:28.310Z,513.7
2023-01-17T08:27:12.019Z,518.8
2023-01-17T08:28:55.665Z,528
2023-01-17T08:30:39.361Z,537.1
2023-01-17T08:32:23.174Z,545.9
2023-01-17T08:34:06.822Z,554
2023-01-17T08:35:50.483Z,563.4
2023-01-17T08:37:34.198Z,611.5
2023-01-17T08:39:17.921Z,649.1
2023-01-17T08:41:01.585Z,649.2
2023-01-17T08:42:45.313Z,652.7
2023-01-17T08:44:28.969Z,656.5
2023-01-17T08:46:12.774Z,664.2
2023-01-17T08:47:56.374Z,674.8
2023-01-17T08:49:40.078Z,683.3
2023-01-17T08:51:23.964Z,692.5
2023-01-17T08:53:07.542Z,703.1
2023-01-17T08:54:51.288Z,716.6
2023-01-17T08:56:34.968Z,724
2023-01-17T09:00:02.353Z,756.6
2023-01-17T09:01:46.003Z,764.8
2023-01-17T09:03:29.727Z,774.2
2023-01-17T09:05:13.416Z,781.4
2023-01-17T09:06:57.153Z,792.5
2023-01-17T09:08:40.812Z,792
2023-01-17T09:10:24.523Z,793.2
2023-01-17T09:12:08.216Z,792.8
2023-01-17T09:13:51.919Z,794.9
2023-01-17T09:15:35.635Z,799.8
2023-01-17T09:17:19.325Z,802.7
2023-01-17T09:19:03.026Z,801.8
2023-01-17T09:20:46.711Z,804
2023-01-17T09:22:30.429Z,808.3
2023-01-17T09:24:14.128Z,815.1
2023-01-17T09:25:57.839Z,815.1
2023-01-17T09:27:41.545Z,812.8
2023-01-17T09:29:25.240Z,817.5
2023-01-17T09:31:08.938Z,827.1
2023-01-17T09:32:52.677Z,832.9
2023-01-17T09:34:36.340Z,840.6
2023-01-17T09:36:20.086Z,843.9
2023-01-17T09:38:03.809Z,851.9
2023-01-17T09:39:47.477Z,858
2023-01-17T09:41:31.243Z,857
2023-01-17T09:43:14.922Z,851.2
2023-01-17T09:44:58.666Z,849.4
2023-01-17T09:46:42.304Z,854.5
2023-01-17T09:48:26.031Z,858.6
2023-01-17T09:50:09.688Z,859.6
2023-01-17T09:51:53.436Z,863.1
2023-01-17T09:53:37.070Z,866.6
2023-01-17T09:55:20.806Z,870.3
2023-01-17T09:57:04.640Z,875.3
2023-01-17T09:58:48.173Z,880.8
2023-01-17T10:00:31.908Z,886.3
2023-01-17T10:02:15.577Z,891.5
2023-01-17T10:03:59.282Z,895.3
2023-01-17T10:05:42.969Z,896.9
2023-01-17T10:07:26.658Z,897.6
2023-01-17T10:09:10.590Z,901
2023-01-17T10:10:54.168Z,902.3
2023-01-17T10:12:37.878Z,901.6
2023-01-17T10:14:21.548Z,905.5
2023-01-17T10:16:05.327Z,907.4
2023-01-17T10:17:48.991Z,913.4
2023-01-17T10:19:32.751Z,918.9
2023-01-17T10:21:16.295Z,910.7
2023-01-17T10:24:43.776Z,897.4
2023-01-17T10:26:27.559Z,892.3
2023-01-17T10:28:11.258Z,887.6
2023-01-17T10:29:54.933Z,879.7
2023-01-17T10:31:38.649Z,881
2023-01-17T10:33:22.393Z,878.5
2023-01-17T10:35:06.039Z,872.4
2023-01-17T10:36:49.760Z,866.5
2023-01-17T10:38:33.428Z,860.1
2023-01-17T10:40:17.088Z,854.6
2023-01-17T10:42:00.879Z,848.3
2023-01-17T10:43:44.549Z,843.5
2023-01-17T10:45:28.246Z,840.9
2023-01-17T10:47:11.843Z,835.9
2023-01-17T10:48:55.665Z,829.2
2023-01-17T10:50:39.227Z,827.2
2023-01-17T10:52:22.923Z,823.5
2023-01-17T10:54:06.719Z,819.4
2023-01-17T10:55:50.384Z,814.5
2023-01-17T10:57:34.050Z,805.8
2023-01-17T10:59:17.775Z,794.1
2023-01-17T11:01:01.514Z,783.9
2023-01-17T11:02:45.115Z,775.9
2023-01-17T11:04:28.829Z,772.1
2023-01-17T11:06:12.734Z,770.9
2023-01-17T11:07:56.242Z,768.5
2023-01-17T11:09:40.115Z,761.5
2023-01-17T11:11:23.623Z,757.3
2023-01-17T11:13:07.461Z,756.1
2023-01-17T11:14:51.040Z,756.4
2023-01-17T11:16:34.731Z,754.7
2023-01-17T11:18:18.536Z,752.5
2023-01-17T11:20:02.137Z,751.7
2023-01-17T11:21:45.875Z,753.6
2023-01-17T11:23:29.542Z,758.1
2023-01-17T11:25:13.355Z,762.1
2023-01-17T11:26:56.928Z,763.1
2023-01-17T11:28:40.797Z,763.4
2023-01-17T11:30:24.347Z,763.4
2023-01-17T11:32:08.038Z,768.5
2023-01-17T11:33:51.829Z,771.1
2023-01-17T11:35:35.431Z,772.6
2023-01-17T11:37:19.160Z,775.2
2023-01-17T11:39:02.850Z,777.6
2023-01-17T11:40:46.675Z,779
2023-01-17T11:42:30.251Z,779.9
2023-01-17T11:44:14.043Z,782.8
2023-01-17T11:45:57.653Z,780.2
2023-01-17T11:47:41.371Z,781.4
2023-01-17T11:49:25.156Z,786.7
2023-01-17T11:51:08.804Z,791.6
2023-01-17T11:52:52.483Z,795.2
2023-01-17T11:54:36.297Z,799.2
2023-01-17T11:56:19.921Z,805.6
2023-01-17T11:58:03.669Z,810.9
2023-01-17T11:59:47.296Z,814.6
2023-01-17T12:01:31.050Z,814.8
2023-01-17T12:03:14.833Z,816.9
2023-01-17T12:04:58.377Z,818.3
2023-01-17T12:06:42.095Z,820.6
2023-01-17T12:08:25.864Z,821.9
2023-01-17T12:10:09.660Z,826.9
2023-01-17T12:11:53.201Z,833
2023-01-17T12:13:36.895Z,836.9
2023-01-17T12:15:20.579Z,839.7
2023-01-17T12:17:04.324Z,845.2
2023-01-17T12:18:48.000Z,847.5
2023-01-17T12:20:31.703Z,851.8
2023-01-17T12:22:15.589Z,853.5
2023-01-17T12:23:59.285Z,853.3
2023-01-17T12:25:42.914Z,859
2023-01-17T12:27:26.805Z,865.8
2023-01-17T12:29:10.380Z,868.4
2023-01-17T12:30:54.775Z,874.9
2023-01-17T12:32:37.600Z,877.9
2023-01-17T12:34:21.490Z,870.5
2023-01-17T12:36:05.175Z,861
2023-01-17T12:37:48.873Z,856.2
2023-01-17T12:39:32.606Z,854.2
2023-01-17T12:41:16.298Z,852.6
2023-01-17T12:43:00.030Z,846.7
2023-01-17T12:44:43.632Z,844.1
2023-01-17T12:46:27.237Z,845.5
2023-01-17T12:48:10.916Z,844.4
2023-01-17T12:49:54.811Z,842.9
2023-01-17T12:51:38.359Z,840.3
2023-01-17T12:53:22.150Z,837.1
2023-01-17T12:55:05.724Z,837.9
2023-01-17T12:56:49.499Z,836.2
2023-01-17T13:00:16.928Z,880.7
2023-01-17T13:02:00.621Z,872.5
2023-01-17T13:03:44.269Z,856.4
2023-01-17T13:05:28.096Z,859.3
2023-01-17T13:07:11.813Z,877.6
2023-01-17T13:08:55.455Z,905.7
2023-01-17T13:10:39.270Z,910.3
2023-01-17T13:12:22.782Z,917.1
2023-01-17T13:14:06.731Z,921.5
2023-01-17T13:15:50.268Z,926
2023-01-17T13:17:33.860Z,928.4
2023-01-17T13:19:17.669Z,924.7
2023-01-17T13:21:01.282Z,922.8
2023-01-17T13:22:45.079Z,929.7
2023-01-17T13:24:28.731Z,932.5
2023-01-17T13:26:12.386Z,939.9
2023-01-17T13:27:56.062Z,946.3
2023-01-17T13:29:39.878Z,950.6
2023-01-17T13:31:23.536Z,957.8
2023-01-17T13:33:07.204Z,967.6
2023-01-17T13:34:50.876Z,975
2023-01-17T13:36:34.593Z,973.5
2023-01-17T13:38:18.349Z,968.5
2023-01-17T13:40:01.986Z,951.4
2023-01-17T13:41:45.706Z,939.1
2023-01-17T13:43:29.455Z,925.2
2023-01-17T13:45:13.250Z,920.6
2023-01-17T13:46:56.781Z,918.7
2023-01-17T13:48:40.681Z,915.4
2023-01-17T13:50:24.238Z,913.9
2023-01-17T13:52:07.952Z,915.6
2023-01-17T13:53:51.671Z,916.8
2023-01-17T13:55:35.376Z,916.7
2023-01-17T13:57:19.053Z,916.6
2023-01-17T13:59:02.776Z,914.4
2023-01-17T14:00:46.443Z,915.1
2023-01-17T14:02:30.179Z,922.2
2023-01-17T14:04:13.918Z,926.3
2023-01-17T14:05:57.532Z,930.2
2023-01-17T14:07:41.285Z,936.6
2023-01-17T14:09:24.981Z,940.3
2023-01-17T14:11:08.696Z,940.3
2023-01-17T14:12:52.336Z,943.7
2023-01-17T14:14:36.020Z,950.2
2023-01-17T14:16:19.730Z,952
2023-01-17T14:18:03.446Z,954.8
2023-01-17T14:19:47.167Z,955.9
2023-01-17T14:21:30.947Z,953.5
2023-01-17T14:23:14.529Z,951.8
2023-01-17T14:24:58.221Z,947.6
2023-01-17T14:26:42.101Z,941.7
2023-01-17T14:28:25.703Z,938.5
2023-01-17T14:30:09.322Z,935.5
2023-01-17T14:31:53.083Z,932.6
2023-01-17T14:33:36.749Z,926.4
2023-01-17T14:35:20.416Z,923.5
2023-01-17T14:37:04.128Z,922.9
2023-01-17T14:38:47.902Z,926.6
2023-01-17T14:40:31.533Z,926.8
2023-01-17T14:42:15.311Z,926.1
2023-01-17T14:43:58.958Z,926.5
2023-01-17T14:45:42.652Z,926
2023-01-17T14:47:26.368Z,927
2023-01-17T14:49:10.109Z,925.5
2023-01-17T14:50:53.748Z,924.4
2023-01-17T14:52:37.461Z,925
2023-01-17T14:54:21.173Z,925.5
2023-01-17T14:56:04.881Z,925.5
2023-01-17T14:57:48.567Z,926.8
2023-01-17T14:59:32.341Z,925.3
2023-01-17T15:01:16.021Z,923.2
2023-01-17T15:02:59.673Z,924.9
2023-01-17T15:04:43.374Z,925
2023-01-17T15:06:27.093Z,927.9
2023-01-17T15:08:10.770Z,929.2
2023-01-17T15:09:54.465Z,930.8
2023-01-17T15:11:38.175Z,931.2
2023-01-17T15:13:21.886Z,930.8
2023-01-17T15:15:05.575Z,931
2023-01-17T15:16:49.280Z,929.1
2023-01-17T15:18:32.979Z,925.4
2023-01-17T15:20:16.673Z,927.3
2023-01-17T15:22:00.379Z,929.3
2023-01-17T15:23:44.087Z,929.2
2023-01-17T15:25:27.783Z,930
2023-01-17T15:27:11.506Z,926.2
2023-01-17T15:28:55.201Z,925.1
2023-01-17T15:30:38.891Z,927.6
2023-01-17T15:32:22.585Z,929
2023-01-17T15:34:06.279Z,930.2
2023-01-17T15:35:49.990Z,933.2
2023-01-17T15:37:33.703Z,935.1
2023-01-17T15:39:17.479Z,941.2
2023-01-17T15:41:01.104Z,945.5
2023-01-17T15:42:44.802Z,951.9
2023-01-17T15:44:28.503Z,950.2
2023-01-17T15:46:12.209Z,946.7
2023-01-17T15:47:55.918Z,949.5
2023-01-17T15:49:39.590Z,953.3
2023-01-17T15:51:23.302Z,954.2
2023-01-17T15:53:07.002Z,949.4
2023-01-17T15:54:50.729Z,946.3
2023-01-17T15:56:34.403Z,944.4
2023-01-17T15:58:18.096Z,942.3
2023-01-17T16:00:01.885Z,939.7
2023-01-17T16:01:45.732Z,939.6
2023-01-17T16:03:29.226Z,945.2
2023-01-17T16:05:12.936Z,946.6
2023-01-17T16:06:56.649Z,951
2023-01-17T16:08:40.477Z,949
2023-01-17T16:10:24.039Z,952.5
2023-01-17T16:12:07.744Z,952.1
2023-01-17T16:13:51.499Z,954.6
2023-01-17T16:15:35.150Z,960.2
2023-01-17T16:17:18.859Z,965.4
2023-01-17T16:19:02.572Z,964.8
2023-01-17T16:20:46.319Z,966
2023-01-17T16:22:29.939Z,969.2
2023-01-17T16:24:13.661Z,970.5
2023-01-17T16:25:57.360Z,970.5
2023-01-17T16:27:41.072Z,967
2023-01-17T16:29:24.757Z,967
2023-01-17T16:31:08.469Z,970.4
2023-01-17T16:32:52.157Z,974.5
2023-01-17T16:34:35.881Z,975.6
2023-01-17T16:36:19.573Z,976.7
2023-01-17T16:38:03.263Z,979.7
2023-01-17T16:39:46.989Z,978.2
2023-01-17T16:41:30.705Z,978.1
2023-01-17T16:43:14.368Z,981.9
2023-01-17T16:44:58.075Z,983.8
2023-01-17T16:46:41.774Z,984.1
2023-01-17T16:48:25.485Z,983.7
2023-01-17T16:50:09.177Z,982
2023-01-17T16:51:52.882Z,982.5
2023-01-17T16:53:36.608Z,981.7
2023-01-17T16:55:20.290Z,982.7
2023-01-17T16:57:03.978Z,984.5
2023-01-17T16:58:47.743Z,990.7
2023-01-17T17:00:31.386Z,996.5
2023-01-17T17:02:15.103Z,998.3
2023-01-17T17:03:58.800Z,1002.2
2023-01-17T17:05:42.490Z,1003.4
2023-01-17T17:07:26.194Z,1005.5
2023-01-17T17:09:09.948Z,1006.6
2023-01-17T17:10:53.594Z,1004.1
2023-01-17T17:12:37.296Z,1005.8
2023-01-17T17:14:21.020Z,1008.7
2023-01-17T17:16:04.740Z,1009.3
2023-01-17T17:17:48.406Z,1011.4
2023-01-17T17:19:32.101Z,1012.5
2023-01-17T17:21:15.806Z,1012.3
2023-01-17T17:22:59.541Z,1007.3
2023-01-17T17:24:43.205Z,1002.8
2023-01-17T17:26:26.919Z,998.8
2023-01-17T17:28:10.629Z,998.3
2023-01-17T17:29:54.300Z,995.1
2023-01-17T17:31:38.004Z,992.5
2023-01-17T17:33:21.707Z,993.1
2023-01-17T17:35:05.415Z,991.7
2023-01-17T17:36:49.122Z,997.2
2023-01-17T17:38:32.806Z,1041.1
2023-01-17T17:40:16.520Z,1052.3
2023-01-17T17:42:00.221Z,1055.7
2023-01-17T17:43:43.921Z,1051.3
2023-01-17T17:45:27.635Z,1048.6
2023-01-17T17:47:11.321Z,1040.1
2023-01-17T17:48:55.103Z,1031.2
2023-01-17T17:50:38.723Z,1021.2
2023-01-17T17:52:22.432Z,1011.8
2023-01-17T17:54:06.119Z,1008.1
2023-01-17T17:55:49.831Z,1003.3
2023-01-17T17:57:33.585Z,996
2023-01-17T17:59:17.224Z,993
2023-01-17T18:01:00.936Z,988.3
2023-01-17T18:02:44.628Z,980.5
2023-01-17T18:04:28.343Z,973.5
2023-01-17T18:06:12.033Z,968.2
2023-01-17T18:07:55.726Z,961.2
2023-01-17T18:09:39.446Z,955
2023-01-17T18:11:23.137Z,950.7
2023-01-17T18:13:06.835Z,945
2023-01-17T18:14:50.598Z,939.5
2023-01-17T18:16:34.328Z,937.5
2023-01-17T18:18:18.035Z,936.6
2023-01-17T18:20:01.730Z,934
2023-01-17T18:21:45.528Z,932
2023-01-17T18:23:29.123Z,928.9
2023-01-17T18:25:12.840Z,923.3
2023-01-17T18:26:56.501Z,917.4
2023-01-17T18:28:40.224Z,912.2
2023-01-17T18:30:23.915Z,908.4
2023-01-17T18:32:07.625Z,904.4
2023-01-17T18:33:51.315Z,902
2023-01-17T18:35:35.006Z,897.3
2023-01-17T18:37:18.696Z,893.9
2023-01-17T18:39:02.424Z,892.7
2023-01-17T18:40:46.183Z,886.7
2023-01-17T18:42:29.842Z,882.4
2023-01-17T18:44:13.532Z,878.4
2023-01-17T18:45:57.205Z,874
2023-01-17T18:47:40.923Z,868.7
2023-01-17T18:49:24.681Z,864.1
2023-01-17T18:51:08.336Z,863.1
2023-01-17T18:52:52.033Z,861.7
2023-01-17T18:54:35.746Z,857.6
2023-01-17T18:56:19.397Z,854.3
2023-01-17T18:58:03.119Z,851.7
2023-01-17T18:59:46.815Z,849.9
2023-01-17T19:01:30.526Z,847.1
2023-01-17T19:03:14.306Z,842.9
2023-01-17T19:04:57.937Z,836.3
2023-01-17T19:06:41.675Z,834.1
2023-01-17T19:08:25.349Z,835.2
2023-01-17T19:10:09.032Z,837
2023-01-17T19:11:52.744Z,836.4
2023-01-17T19:13:36.424Z,837.2
2023-01-17T19:15:20.114Z,835.1
2023-01-17T19:17:03.796Z,835
2023-01-17T19:18:47.510Z,832.6
2023-01-17T19:20:31.199Z,831.7
2023-01-17T19:22:15.004Z,835.8
2023-01-17T19:23:58.619Z,837.4
2023-01-17T19:25:42.426Z,840.2
2023-01-17T19:27:26.021Z,844.4
2023-01-17T19:29:09.727Z,845.6
2023-01-17T19:30:53.420Z,846.1
2023-01-17T19:32:37.172Z,843.6
2023-01-17T19:34:20.806Z,841.5
2023-01-17T19:36:04.540Z,841.6
2023-01-17T19:37:48.313Z,842.7
2023-01-17T19:39:31.980Z,841.4
2023-01-17T19:41:15.603Z,838.4
2023-01-17T19:42:59.320Z,835.5
2023-01-17T19:44:43.090Z,836.2
2023-01-17T19:46:26.750Z,834.6
2023-01-17T19:48:10.466Z,836.1
2023-01-17T19:49:54.131Z,839
2023-01-17T19:51:37.828Z,838
2023-01-17T19:53:21.528Z,840
2023-01-17T19:55:05.229Z,841.4
2023-01-17T19:56:48.944Z,843.4
2023-01-17T19:58:32.646Z,844
2023-01-17T20:00:16.343Z,842.3
2023-01-17T20:02:00.063Z,842.6
2023-01-17T20:03:43.757Z,841.5
2023-01-17T20:05:27.442Z,838.2
2023-01-17T20:07:11.152Z,840.6
2023-01-17T20:08:54.851Z,840.4
2023-01-17T20:10:38.543Z,840
2023-01-17T20:12:22.256Z,839.5
2023-01-17T20:14:06.097Z,836
2023-01-17T20:15:49.657Z,837
2023-01-17T20:17:33.370Z,838.6
2023-01-17T20:19:17.067Z,837.6
2023-01-17T20:21:00.823Z,835.3
2023-01-17T20:22:44.488Z,833.7
2023-01-17T20:24:28.302Z,832.6
2023-01-17T20:26:11.875Z,832.9
2023-01-17T20:27:55.616Z,832.7
2023-01-17T20:29:39.381Z,831.8
2023-01-17T20:31:23.008Z,831.5
2023-01-17T20:33:06.701Z,829.7
2023-01-17T20:34:50.432Z,828.6
2023-01-17T20:36:34.102Z,828
2023-01-17T20:38:17.817Z,828.9
2023-01-17T20:40:01.696Z,827.6
2023-01-17T20:41:45.284Z,825.7
2023-01-17T20:43:28.918Z,825.5
2023-01-17T20:45:12.638Z,825.8
2023-01-17T20:46:56.339Z,826.9
2023-01-17T20:48:40.067Z,829.1
2023-01-17T20:50:23.720Z,830.8
2023-01-17T20:52:07.437Z,830.8
2023-01-17T20:53:51.268Z,830.4
2023-01-17T20:55:34.888Z,830.1
2023-01-17T20:57:18.548Z,825
2023-01-17T20:59:02.288Z,821.9
2023-01-17T21:00:45.969Z,822.5
2023-01-17T21:02:29.658Z,818.5
2023-01-17T21:04:13.380Z,812.1
2023-01-17T21:05:57.063Z,811.2
2023-01-17T21:07:40.816Z,809
2023-01-17T21:09:24.509Z,809.4
2023-01-17T21:11:08.162Z,808.6
2023-01-17T21:12:51.869Z,809.4
2023-01-17T21:14:35.580Z,810.5
2023-01-17T21:16:19.294Z,807.4
2023-01-17T21:18:02.978Z,802.9
2023-01-17T21:19:46.674Z,801.1
2023-01-17T21:21:30.400Z,801.6
2023-01-17T21:23:14.083Z,801.8
2023-01-17T21:24:57.801Z,802.6
2023-01-17T21:26:41.496Z,807.5
2023-01-17T21:28:25.212Z,807.3
2023-01-17T21:30:08.912Z,809.1
2023-01-17T21:31:52.630Z,809.9
2023-01-17T21:33:36.284Z,807.5
2023-01-17T21:35:19.982Z,807.6
2023-01-17T21:37:03.722Z,807.9
2023-01-17T21:38:47.404Z,807.6
2023-01-17T21:40:31.086Z,806.8
2023-01-17T21:42:14.813Z,807.4
2023-01-17T21:43:58.509Z,804.2
2023-01-17T21:45:42.220Z,801.9
2023-01-17T21:47:25.912Z,800
2023-01-17T21:49:09.608Z,802.1
2023-01-17T21:50:53.429Z,801
2023-01-17T21:52:37.025Z,797.2
2023-01-17T21:54:20.714Z,798.8
2023-01-17T21:56:04.450Z,799.9
2023-01-17T21:57:48.131Z,801.9
2023-01-17T21:59:31.831Z,801.1
2023-01-17T22:01:15.517Z,799.8
2023-01-17T22:02:59.228Z,798.7
2023-01-17T22:04:42.950Z,798.4
2023-01-17T22:06:26.680Z,798.1
2023-01-17T22:08:10.345Z,797.7
2023-01-17T22:09:54.042Z,796.6
2023-01-17T22:11:37.756Z,798
2023-01-17T22:13:21.451Z,797
2023-01-17T22:15:05.136Z,796
2023-01-17T22:16:48.833Z,794.1
2023-01-17T22:18:32.574Z,794.4
2023-01-17T22:20:16.272Z,793.2
2023-01-17T22:21:59.944Z,794.5
2023-01-17T22:23:43.658Z,799.5
2023-01-17T22:25:27.360Z,800.3
2023-01-17T22:27:11.061Z,802.4
2023-01-17T22:28:54.757Z,805.9
2023-01-17T22:30:38.442Z,811.4
2023-01-17T22:32:22.158Z,814